< Typhoon 197902 1979 Season Typhoon 197904 >
Typhoon 197903 (CECIL)
General InformationTrack Information on Google MapsDetailed Wind InformationList of All Images || Disaster Info.ResourceGoogle EarthGE AnimationAtom FeedGeoJSON
Detalied Best Track (Time Zone = UTC)
Year Month Day Hour Lat. Long. Pressure (hPa) Wind (kt) Class Image Chart
1979 4 11 00 6.3 139.6 1000 0 2 Image Chart
1979 4 11 06 6.5 139.1 998 0 2 Image Chart
1979 4 11 12 6.7 138.5 998 0 2 Image Chart
1979 4 11 18 6.9 137.9 996 0 2 Image Chart
1979 4 12 00 7.0 137.2 994 35 3 Image Chart
1979 4 12 06 6.9 136.8 994 35 3 Image Chart
1979 4 12 12 6.9 136.1 994 40 3 Image Chart
1979 4 12 18 7.2 135.8 992 45 3 Image Chart
1979 4 13 00 7.5 134.9 992 45 3 Image Chart
1979 4 13 06 7.7 134.3 990 45 3 Image Chart
1979 4 13 12 7.9 133.2 990 45 3 Image Chart
1979 4 13 18 8.1 132.2 985 45 3 Image Chart
1979 4 14 00 8.2 131.2 985 50 4 Image Chart
1979 4 14 06 8.2 130.5 980 55 4 Image Chart
1979 4 14 12 8.5 129.5 975 65 5 Image Chart
1979 4 14 18 8.8 128.3 970 70 5 Image Chart
1979 4 15 00 9.3 127.6 965 75 5 Image Chart
1979 4 15 06 10.0 126.5 965 75 5 Image Chart
1979 4 15 12 10.7 125.5 965 75 5 Image Chart
1979 4 15 18 11.3 124.3 975 70 5 Image Chart
1979 4 16 00 11.9 123.2 980 70 5 Image Chart
1979 4 16 06 12.4 122.5 980 65 5 Image Chart
1979 4 16 12 12.6 122.3 980 60 4 Image Chart
1979 4 16 18 12.7 122.2 980 65 5 Image Chart
1979 4 17 00 12.9 122.2 980 65 5 Image Chart
1979 4 17 06 13.3 122.3 980 55 4 Image Chart
1979 4 17 12 13.8 122.5 985 50 4 Image Chart
1979 4 17 18 14.1 122.7 985 50 4 Image Chart
1979 4 18 00 14.6 123.1 990 50 4 Image Chart
1979 4 18 06 15.1 123.6 990 50 4 Image Chart
1979 4 18 12 15.8 124.0 990 50 4 Image Chart
1979 4 18 18 16.2 124.3 990 50 4 Image Chart
1979 4 19 00 16.9 125.0 990 50 4 Image Chart
1979 4 19 06 17.5 126.0 985 60 4 Image Chart
1979 4 19 12 18.0 126.8 990 60 4 Image Chart
1979 4 19 18 19.5 128.0 990 60 4 Image Chart
1979 4 20 00 21.0 129.2 990 50 4 Image Chart
1979 4 20 06 21.9 130.5 996 50 4 Image Chart
1979 4 20 12 22.3 132.0 998 45 3 Image Chart
1979 4 20 18 22.6 133.9 1000 40 3 Image Chart
1979 4 21 00 22.9 136.0 1002 0 6 Image Chart
1979 4 21 06 23.0 138.0 1006 0 6 Image Chart
1979 4 21 12 24.0 141.5 1010 0 6 Image Chart
Japan Meteorological Agency Best Track Data | Correction Date : 1992-10-21
< Typhoon 197902 1979 Season Typhoon 197904 >

Help